Time;durP1;ratioP1;P1;durP2;ratioP2;P2;SDS_P1;SDS_P2;PMS_P1;PMS_P2;Temp;Humidity;BMP_temperature;BMP_pressure;BME280_temperature;BME280_humidity;BME280_pressure;Samples;Min_cycle;Max_cycle;Signal;HPM_P1;HPM_P2
2022/05/30 00:01:16;;;;;;;1.45;0.65;;;;;;;15.44;47.94;100294.63;1691597;83;20986;-68
2022/05/30 00:03:42;;;;;;;0.42;0.42;;;;;;;15.43;48.07;100290.31;1695869;83;21066;-68
2022/05/30 00:06:10;;;;;;;;;;;;;;;15.42;48.11;100287.31;1700019;83;20987;-68
2022/05/30 00:08:38;;;;;;;4.03;0.70;;;;;;;15.43;48.19;100288.44;1655428;85;20112;-69
2022/05/30 00:11:08;;;;;;;1.60;0.68;;;;;;;15.37;48.40;100297.39;1663933;85;21013;-68
2022/05/30 00:13:35;;;;;;;1.60;0.85;;;;;;;15.38;48.50;100293.64;1696531;83;21028;-68
2022/05/30 00:16:07;;;;;;;1.52;0.62;;;;;;;15.38;48.53;100289.09;1702114;83;21097;-72
2022/05/30 00:18:35;;;;;;;1.27;0.57;;;;;;;15.41;48.67;100285.66;1699823;83;21056;-71
2022/05/30 00:21:01;;;;;;;2.92;0.93;;;;;;;15.40;48.76;100285.37;1704234;83;21158;-68
2022/05/30 00:23:27;;;;;;;1.40;0.53;;;;;;;15.40;48.82;100278.66;1656588;85;21034;-69
2022/05/30 00:25:54;;;;;;;2.60;0.60;;;;;;;15.41;48.89;100277.59;1660340;85;21022;-68
2022/05/30 00:28:22;;;;;;;1.27;0.60;;;;;;;15.41;48.97;100279.78;1695465;83;21110;-69
2022/05/30 00:30:50;;;;;;;2.92;0.45;;;;;;;15.42;49.13;100273.35;1694821;83;21537;-69
2022/05/30 00:33:18;;;;;;;1.92;0.80;;;;;;;15.43;49.26;100271.51;1713718;83;21010;-69
2022/05/30 00:35:49;;;;;;;1.15;0.40;;;;;;;15.42;49.44;100274.69;1658958;85;21113;-69
2022/05/30 00:38:15;;;;;;;3.70;0.82;;;;;;;15.42;49.52;100273.35;1693894;83;21051;-69
2022/05/30 00:40:42;;;;;;;1.07;0.80;;;;;;;15.43;49.66;100266.95;1694129;84;21026;-69
2022/05/30 00:43:28;;;;;;;1.40;0.72;;;;;;;15.44;49.82;100266.42;1691098;83;21030;-69
2022/05/30 00:45:58;;;;;;;3.40;1.17;;;;;;;15.44;50.11;100266.42;1699233;83;21468;-69
2022/05/30 00:48:29;;;;;;;1.65;1.02;;;;;;;15.44;50.43;100269.11;1678340;84;21474;-68
2022/05/30 00:51:01;;;;;;;0.88;0.72;;;;;;;15.43;50.55;100267.48;1696382;83;21014;-71
2022/05/30 00:53:29;;;;;;;2.08;1.05;;;;;;;15.44;50.76;100265.08;1695331;83;21048;-68
2022/05/30 00:55:58;;;;;;;1.20;0.82;;;;;;;15.44;51.39;100262.39;1693939;83;21031;-71
2022/05/30 00:58:28;;;;;;;1.00;0.98;;;;;;;15.41;52.01;100263.67;1694358;83;21090;-70
2022/05/30 01:00:54;;;;;;;2.08;0.50;;;;;;;15.37;51.80;100260.60;1691006;83;21541;-70
2022/05/30 01:08:53;;;;;;;2.50;0.95;;;;;;;15.25;53.60;100219.39;1693976;83;21150;-69
2022/05/30 01:11:19;;;;;;;3.12;1.25;;;;;;;15.26;54.09;100222.39;1694050;83;21596;-70
2022/05/30 01:13:45;;;;;;;;;;;;;;;15.25;54.64;100221.27;1697409;84;21561;-72
2022/05/30 01:16:11;;;;;;;1.35;0.70;;;;;;;15.23;55.26;100208.06;1693390;83;20137;-71
2022/05/30 01:18:50;;;;;;;3.98;1.22;;;;;;;15.15;55.75;100201.64;1694257;83;21594;-71
2022/05/30 01:21:43;;;;;;;2.20;1.22;;;;;;;15.13;55.67;100203.73;1694576;84;20996;-70
2022/05/30 01:24:29;;;;;;;2.15;1.98;;;;;;;15.11;55.79;100195.89;1694472;82;20986;-68
2022/05/30 01:27:14;;;;;;;2.08;1.70;;;;;;;15.08;56.07;100186.94;1651499;84;20982;-69
2022/05/30 01:29:48;;;;;;;3.30;2.17;;;;;;;15.04;56.54;100171.50;1706707;82;21018;-69
2022/05/30 01:32:20;;;;;;;2.02;1.92;;;;;;;14.98;57.25;100163.82;1703552;84;20986;-70
2022/05/30 01:34:48;;;;;;;2.65;2.15;;;;;;;14.91;57.96;100170.58;1700339;83;20995;-74
2022/05/30 01:37:15;;;;;;;4.90;2.62;;;;;;;14.47;58.33;100111.23;1658747;86;21030;-69
2022/05/30 01:39:43;;;;;;;2.45;1.55;;;;;;;14.74;58.61;100177.02;1629715;85;21144;-69
2022/05/30 01:42:12;;;;;;;1.85;1.45;;;;;;;14.67;59.05;100180.28;1694704;83;21137;-69
2022/05/30 01:44:40;;;;;;;2.70;1.50;;;;;;;14.62;59.51;100179.29;1678702;83;21040;-69
2022/05/30 01:47:07;;;;;;;1.27;1.00;;;;;;;14.56;60.10;100181.80;1680428;83;21486;-69
2022/05/30 01:49:34;;;;;;;3.55;0.85;;;;;;;14.50;60.66;100173.79;1666295;83;21019;-69
2022/05/30 01:52:01;;;;;;;2.22;1.10;;;;;;;14.44;61.26;100180.03;1685472;83;21102;-69
2022/05/30 01:54:27;;;;;;;2.65;1.30;;;;;;;14.35;61.96;100172.76;1688572;83;21553;-71
2022/05/30 01:57:13;;;;;;;1.75;0.90;;;;;;;14.30;62.25;100188.17;1685456;83;21121;-70
2022/05/30 01:59:41;;;;;;;3.67;1.42;;;;;;;14.25;62.61;100189.86;1676883;84;21014;-70
2022/05/30 02:02:21;;;;;;;0.88;0.75;;;;;;;14.21;63.20;100189.47;1686105;84;21002;-68
2022/05/30 02:04:49;;;;;;;2.27;1.12;;;;;;;14.17;63.38;100186.39;1686219;84;21054;-71
2022/05/30 02:07:15;;;;;;;0.78;0.72;;;;;;;14.16;63.69;100185.27;1685985;84;21046;-68
2022/05/30 02:09:42;;;;;;;2.33;1.47;;;;;;;14.17;63.99;100184.23;1684987;84;21062;-69
2022/05/30 02:12:11;;;;;;;1.62;1.05;;;;;;;14.17;64.08;100189.07;1686149;84;21022;-70
2022/05/30 02:14:40;;;;;;;1.30;1.20;;;;;;;14.21;64.63;100189.47;1684859;84;21109;-69
2022/05/30 02:17:07;;;;;;;1.00;1.00;;;;;;;14.23;65.15;100184.70;1686234;84;21041;-69
2022/05/30 02:19:40;;;;;;;1.12;0.80;;;;;;;14.26;65.60;100174.91;1686431;84;21066;-69
2022/05/30 02:22:22;;;;;;;1.52;1.42;;;;;;;14.27;65.62;100171.70;1686455;84;21062;-70
2022/05/30 02:24:49;;;;;;;5.70;1.80;;;;;;;14.32;65.99;100175.89;1671525;84;21090;-74
2022/05/30 02:27:17;;;;;;;1.42;1.22;;;;;;;14.43;66.59;100172.52;1662050;84;21070;-71
2022/05/30 02:29:45;;;;;;;2.50;1.42;;;;;;;14.61;66.32;100171.77;1669004;84;21062;-70
2022/05/30 02:32:13;;;;;;;2.65;1.67;;;;;;;14.75;66.24;100168.48;1686306;84;21054;-69
2022/05/30 02:37:26;;;;;;;3.05;1.70;;;;;;;14.84;67.34;100160.95;1672907;84;21019;-68
2022/05/30 02:39:55;;;;;;;1.70;1.50;;;;;;;14.76;67.46;100154.00;1627071;86;21600;-68
2022/05/30 02:42:40;;;;;;;3.72;1.35;;;;;;;14.70;68.35;100145.50;1674597;84;21045;-70
2022/05/30 02:45:09;;;;;;;1.90;1.20;;;;;;;14.67;68.77;100152.64;1676206;84;21025;-70
2022/05/30 02:47:38;;;;;;;2.20;1.70;;;;;;;14.66;69.58;100155.03;1673968;84;21589;-72
2022/05/30 02:50:07;;;;;;;5.37;1.25;;;;;;;14.60;70.64;100147.34;1685201;84;21574;-70
2022/05/30 02:52:34;;;;;;;1.72;1.37;;;;;;;14.56;70.71;100155.48;1685804;84;21026;-69
2022/05/30 02:55:01;;;;;;;1.80;1.27;;;;;;;14.56;70.77;100164.86;1675596;84;21558;-69
2022/05/30 02:57:29;;;;;;;1.57;0.90;;;;;;;14.58;71.35;100174.38;1684730;84;21008;-69
2022/05/30 02:59:55;;;;;;;;;;;;;;;14.60;71.69;100179.53;1678887;84;21613;-70
2022/05/30 03:02:22;;;;;;;5.00;1.45;;;;;;;14.63;71.99;100190.34;1682460;84;20171;-70
2022/05/30 03:04:49;;;;;;;2.47;1.67;;;;;;;14.59;72.06;100182.72;1682295;84;21099;-70
2022/05/30 03:07:15;;;;;;;1.25;1.15;;;;;;;14.65;71.93;100179.67;1677587;84;21095;-69
2022/05/30 03:09:45;;;;;;;2.45;2.05;;;;;;;14.71;72.05;100184.69;1680861;84;21050;-69
2022/05/30 03:12:13;;;;;;;3.33;1.70;;;;;;;14.74;72.19;100196.33;1679238;84;22161;-70
2022/05/30 03:14:41;;;;;;;1.87;1.15;;;;;;;14.74;72.95;100193.13;1680165;84;21086;-74
2022/05/30 03:17:09;;;;;;;2.17;1.90;;;;;;;14.72;74.40;100187.69;1632441;86;21046;-70
2022/05/30 03:19:38;;;;;;;6.28;1.90;;;;;;;14.67;74.61;100193.69;1686642;83;21081;-69
2022/05/30 03:22:05;;;;;;;3.20;1.15;;;;;;;14.65;74.56;100203.01;1677746;83;20987;-69
2022/05/30 03:24:33;;;;;;;2.77;2.55;;;;;;;14.58;76.32;100213.28;1697712;82;21098;-71
2022/05/30 03:26:59;;;;;;;6.45;2.40;;;;;;;14.54;76.45;100209.86;1691683;82;21586;-69
2022/05/30 03:29:25;;;;;;;6.40;2.22;;;;;;;14.48;77.28;100212.08;1693019;82;21530;-70
2022/05/30 03:31:52;;;;;;;2.70;2.00;;;;;;;14.49;77.04;100220.44;1683314;84;21502;-71
2022/05/30 03:34:20;;;;;;;2.13;2.03;;;;;;;14.52;76.83;100216.80;1702498;82;21645;-68
2022/05/30 03:36:46;;;;;;;2.47;2.20;;;;;;;14.54;77.77;100218.75;1698476;84;21482;-70
2022/05/30 03:39:21;;;;;;;2.20;2.10;;;;;;;14.57;77.60;100208.94;1685833;82;21534;-69
2022/05/30 03:42:06;;;;;;;2.55;2.20;;;;;;;14.60;77.71;100203.67;1704650;82;21613;-71
2022/05/30 03:44:44;;;;;;;3.17;2.67;;;;;;;14.59;78.10;100197.47;1675288;82;21010;-69
2022/05/30 03:47:11;;;;;;;2.42;2.22;;;;;;;14.63;77.97;100195.70;1695900;82;21517;-70
2022/05/30 03:49:38;;;;;;;2.50;2.30;;;;;;;14.64;78.49;100187.44;1704601;82;21071;-70
2022/05/30 03:52:08;;;;;;;4.10;1.90;;;;;;;14.61;79.20;100183.84;1691013;82;21098;-69
2022/05/30 03:54:36;;;;;;;3.90;2.33;;;;;;;14.63;79.23;100167.53;1715023;82;21090;-73
2022/05/30 03:57:04;;;;;;;4.22;2.47;;;;;;;14.64;80.00;100178.58;1711234;82;21090;-69
2022/05/30 03:59:30;;;;;;;4.25;2.22;;;;;;;14.69;79.88;100176.04;1703817;82;21022;-70
2022/05/30 04:01:59;;;;;;;2.00;1.90;;;;;;;14.76;79.52;100160.71;1694197;82;21120;-71
2022/05/30 04:04:25;;;;;;;2.90;2.50;;;;;;;14.84;79.79;100162.30;1704673;82;21502;-70
2022/05/30 04:06:51;;;;;;;2.00;1.90;;;;;;;14.86;80.20;100163.73;1706224;82;21049;-72
2022/05/30 04:09:17;;;;;;;2.20;2.10;;;;;;;14.88;80.69;100168.36;1706443;82;21498;-69
2022/05/30 04:12:46;;;;;;;5.15;2.98;;;;;;;14.92;81.19;100160.16;1762323;79;22901;-70
2022/05/30 04:15:21;;;;;;;2.27;2.17;;;;;;;14.95;80.82;100158.88;1676061;82;21105;-70
2022/05/30 04:17:49;;;;;;;2.65;2.45;;;;;;;14.98;81.40;100164.63;1699353;82;21607;-69
2022/05/30 04:20:16;;;;;;;2.45;2.25;;;;;;;14.92;81.68;100178.95;1720702;82;21540;-71
2022/05/30 04:22:46;;;;;;;3.85;2.47;;;;;;;14.90;82.02;100179.69;1700631;82;21005;-69
2022/05/30 04:25:31;;;;;;;2.33;2.22;;;;;;;14.94;81.58;100186.78;1723658;81;21076;-71
2022/05/30 04:27:58;;;;;;;;;;;;;;;14.98;81.50;100167.84;1731839;82;21037;-67
2022/05/30 04:30:25;;;;;;;2.60;2.50;;;;;;;15.01;81.33;100168.72;1714443;83;20865;-70
2022/05/30 04:32:53;;;;;;;2.65;2.55;;;;;;;14.94;81.75;100155.91;1735947;81;21067;-70
2022/05/30 04:35:20;;;;;;;2.62;2.40;;;;;;;14.96;81.29;100164.03;1709779;82;21029;-71
2022/05/30 04:37:47;;;;;;;2.70;2.58;;;;;;;15.04;81.10;100162.11;1698307;83;21081;-70
2022/05/30 04:40:24;;;;;;;2.25;1.98;;;;;;;15.04;81.12;100153.53;1698817;83;21096;-68
2022/05/30 04:43:08;;;;;;;1.70;1.60;;;;;;;15.06;80.99;100154.12;1700427;83;21096;-71
2022/05/30 04:46:11;;;;;;;2.67;1.80;;;;;;;15.15;80.60;100178.83;1719153;81;20986;-70
2022/05/30 04:48:40;;;;;;;1.50;1.50;;;;;;;15.22;80.22;100174.22;1720867;83;21109;-69
2022/05/30 04:51:06;;;;;;;0.88;0.88;;;;;;;15.24;79.79;100172.63;1722621;83;21034;-71
2022/05/30 04:53:32;;;;;;;1.62;1.52;;;;;;;15.24;80.00;100175.31;1710104;81;21032;-69
2022/05/30 04:56:10;;;;;;;1.42;1.32;;;;;;;15.24;79.61;100180.68;1715979;80;21111;-70
2022/05/30 04:58:40;;;;;;;2.83;1.52;;;;;;;15.19;79.66;100196.13;1735314;80;20985;-69
2022/05/30 05:01:10;;;;;;;3.33;1.25;;;;;;;15.15;79.93;100201.12;1728334;81;21010;-73
2022/05/30 05:03:39;;;;;;;1.25;1.00;;;;;;;15.15;79.46;100202.46;1730738;81;21051;-70
2022/05/30 05:06:13;;;;;;;3.75;1.45;;;;;;;15.16;79.56;100203.27;1718803;81;20994;-69
2022/05/30 05:08:55;;;;;;;4.47;1.27;;;;;;;15.20;79.16;100212.55;1736548;81;21030;-69
2022/05/30 05:11:35;;;;;;;2.35;1.50;;;;;;;15.25;78.64;100232.82;1716595;81;21518;-71
2022/05/30 05:14:20;;;;;;;2.67;0.80;;;;;;;15.18;78.75;100247.67;1674222;83;21129;-69
2022/05/30 05:17:06;;;;;;;2.05;1.12;;;;;;;15.13;79.49;100248.84;1687475;83;21081;-70
2022/05/30 05:19:33;;;;;;;1.47;1.25;;;;;;;15.09;80.44;100262.94;1683194;83;21030;-70
2022/05/30 05:22:00;;;;;;;1.37;1.07;;;;;;;15.01;81.04;100269.91;1668335;83;21048;-70
2022/05/30 05:24:27;;;;;;;;;;;;;;;14.97;81.47;100277.57;1698478;83;21023;-70
2022/05/30 05:27:17;;;;;;;6.30;2.00;;;;;;;14.87;82.79;100290.14;1701459;83;20408;-71
2022/05/30 05:29:44;;;;;;;1.92;0.98;;;;;;;14.76;83.25;100285.47;1699499;83;21482;-74
2022/05/30 05:32:10;;;;;;;2.42;1.25;;;;;;;14.76;84.71;100273.40;1678690;83;21415;-70
2022/05/30 05:34:37;;;;;;;;;;;;;;;14.77;83.85;100264.33;1702639;83;21081;-76
2022/05/30 05:37:04;;;;;;;1.70;1.60;;;;;;;14.78;84.71;100282.05;1686686;84;20155;-72
2022/05/30 05:39:34;;;;;;;1.10;1.10;;;;;;;14.70;83.63;100282.33;1694710;83;21114;-70
2022/05/30 05:42:02;;;;;;;3.50;1.70;;;;;;;14.69;84.20;100283.34;1695431;85;21038;-71
2022/05/30 05:44:29;;;;;;;2.45;1.10;;;;;;;14.64;83.64;100299.30;1699884;82;21490;-71
2022/05/30 05:46:57;;;;;;;1.40;1.40;;;;;;;14.65;83.16;100272.75;1746450;81;21011;-71
2022/05/30 05:49:24;;;;;;;2.95;1.05;;;;;;;14.65;84.02;100263.36;1728459;81;20994;-71
2022/05/30 05:51:58;;;;;;;0.82;0.82;;;;;;;14.64;83.73;100262.55;1705616;83;21127;-72
2022/05/30 05:54:25;;;;;;;1.40;1.30;;;;;;;14.61;83.56;100252.24;1691577;83;21049;-70
2022/05/30 05:56:54;;;;;;;1.17;1.00;;;;;;;14.62;84.36;100262.45;1706645;83;22453;-71
2022/05/30 05:59:24;;;;;;;2.20;1.35;;;;;;;14.60;83.39;100266.71;1705401;83;21031;-70
2022/05/30 06:01:51;;;;;;;1.50;1.15;;;;;;;14.63;83.19;100268.13;1706412;83;21067;-70
2022/05/30 06:04:17;;;;;;;1.45;1.35;;;;;;;14.64;83.95;100261.73;1684857;83;21032;-70
2022/05/30 06:06:45;;;;;;;1.25;1.22;;;;;;;14.66;83.52;100255.63;1682765;84;21097;-70
2022/05/30 06:09:14;;;;;;;1.32;1.32;;;;;;;14.68;83.02;100266.44;1688687;85;21109;-71
2022/05/30 06:11:47;;;;;;;0.85;0.78;;;;;;;14.71;83.63;100271.88;1663459;85;21031;-70
2022/05/30 06:14:13;;;;;;;;;;;;;;;14.72;83.94;100260.13;1635709;86;20999;-70
2022/05/30 06:16:41;;;;;;;1.95;1.47;;;;;;;14.66;83.69;100260.47;1613877;87;20186;-69
2022/05/30 06:19:11;;;;;;;2.45;1.62;;;;;;;14.57;84.62;100261.77;1641071;86;21130;-72
2022/05/30 06:21:39;;;;;;;3.60;1.60;;;;;;;14.51;85.34;100262.61;1641651;85;21218;-70
2022/05/30 06:24:08;;;;;;;2.22;2.12;;;;;;;14.53;85.36;100255.16;1641765;86;21495;-70
2022/05/30 06:26:53;;;;;;;2.25;1.90;;;;;;;14.53;86.33;100255.98;1640523;87;21086;-72
2022/05/30 06:29:19;;;;;;;2.50;1.72;;;;;;;14.52;86.25;100273.12;1642159;86;21094;-71
2022/05/30 06:31:46;;;;;;;2.87;1.92;;;;;;;14.49;87.70;100277.57;1640925;87;21531;-70
2022/05/30 06:34:13;;;;;;;1.75;1.65;;;;;;;14.45;88.37;100271.00;1635875;85;21483;-70
2022/05/30 06:36:42;;;;;;;1.05;1.05;;;;;;;14.42;88.24;100274.09;1658469;86;21027;-71
2022/05/30 06:39:10;;;;;;;1.62;1.50;;;;;;;14.39;88.55;100241.84;1662042;85;21582;-71
2022/05/30 06:41:41;;;;;;;3.67;1.87;;;;;;;14.33;89.09;100241.87;1661726;85;21039;-72
2022/05/30 06:44:09;;;;;;;3.62;3.33;;;;;;;14.30;89.38;100242.32;1705958;83;20978;-71
2022/05/30 06:46:53;;;;;;;3.80;2.47;;;;;;;14.30;89.61;100223.02;1694060;83;21018;-70
2022/05/30 06:49:42;;;;;;;3.20;2.90;;;;;;;14.29;89.72;100223.23;1693554;84;21040;-74
2022/05/30 06:52:12;;;;;;;5.35;3.30;;;;;;;14.24;90.17;100218.53;1707883;83;21067;-71
2022/05/30 06:54:39;;;;;;;4.20;3.90;;;;;;;14.17;90.65;100211.85;1703209;83;21113;-74
2022/05/30 06:59:52;;;;;;;3.67;3.37;;;;;;;14.14;91.65;100214.14;1707641;84;21001;-71
2022/05/30 07:02:19;;;;;;;5.30;3.20;;;;;;;14.09;91.93;100198.72;1707141;82;21481;-75
2022/05/30 07:05:05;;;;;;;3.55;3.25;;;;;;;14.08;92.37;100187.68;1696404;82;21549;-72
2022/05/30 07:07:55;;;;;;;4.05;3.70;;;;;;;14.04;92.68;100177.09;1704978;82;21485;-73
2022/05/30 07:10:26;;;;;;;3.22;2.95;;;;;;;14.01;93.39;100164.11;1705356;82;21019;-75
2022/05/30 07:13:00;;;;;;;;;;;;;;;14.00;93.57;100155.78;1698244;82;21094;-72
2022/05/30 07:15:30;;;;;;;2.33;2.22;;;;;;;13.99;93.66;100148.77;1701207;83;20433;-72
2022/05/30 07:17:58;;;;;;;2.33;2.22;;;;;;;13.94;94.12;100125.84;1653294;85;21029;-72
2022/05/30 07:20:24;;;;;;;2.37;2.20;;;;;;;13.93;94.05;100146.43;1706036;84;21038;-71
2022/05/30 07:23:10;;;;;;;2.83;2.58;;;;;;;13.94;94.12;100133.88;1705301;83;20995;-72
2022/05/30 07:25:48;;;;;;;4.67;2.72;;;;;;;13.94;94.35;100136.55;1662322;85;21076;-72
2022/05/30 07:28:33;;;;;;;3.17;2.98;;;;;;;13.95;94.35;100132.30;1699881;83;21091;-71
2022/05/30 07:31:16;;;;;;;2.95;2.75;;;;;;;13.98;94.64;100124.36;1652557;83;21520;-72
2022/05/30 07:34:01;;;;;;;3.25;3.05;;;;;;;14.00;94.46;100133.01;1655461;85;21169;-72
2022/05/30 07:36:47;;;;;;;3.60;2.65;;;;;;;14.01;94.39;100116.72;1701580;83;20968;-71
2022/05/30 07:39:21;;;;;;;2.67;2.47;;;;;;;14.04;94.44;100120.81;1705668;83;21114;-73
2022/05/30 07:41:49;;;;;;;2.98;2.77;;;;;;;14.06;94.14;100105.34;1707741;83;21069;-72
2022/05/30 07:44:26;;;;;;;3.45;3.27;;;;;;;14.09;94.03;100104.91;1690577;83;20996;-74
2022/05/30 07:46:54;;;;;;;3.95;3.00;;;;;;;14.10;93.69;100106.53;1715157;83;20970;-73
2022/05/30 07:49:25;;;;;;;2.47;2.27;;;;;;;14.12;93.07;100089.72;1706549;83;21054;-71
2022/05/30 07:52:10;;;;;;;4.85;3.20;;;;;;;14.16;93.14;100084.75;1718153;83;21005;-72
2022/05/30 07:54:39;;;;;;;4.87;3.12;;;;;;;14.17;92.71;100089.89;1706404;83;21070;-74
2022/05/30 07:57:13;;;;;;;5.22;4.65;;;;;;;14.23;92.26;100090.06;1697508;82;21116;-71
2022/05/30 07:59:39;;;;;;;5.20;3.65;;;;;;;14.26;92.30;100092.30;1713787;82;21010;-73
2022/05/30 08:02:07;;;;;;;6.05;3.22;;;;;;;14.27;92.32;100093.95;1701886;82;21520;-74
2022/05/30 08:04:36;;;;;;;4.85;3.65;;;;;;;14.31;92.13;100101.33;1704206;83;21502;-70
2022/05/30 08:07:21;;;;;;;4.00;3.60;;;;;;;14.34;91.76;100103.58;1683330;84;20994;-71
2022/05/30 08:09:52;;;;;;;4.30;4.00;;;;;;;14.39;91.50;100109.61;1670339;84;21060;-71
2022/05/30 08:12:20;;;;;;;6.00;3.58;;;;;;;14.45;90.96;100122.16;1697103;84;21059;-72
2022/05/30 08:14:57;;;;;;;5.03;3.52;;;;;;;14.49;90.95;100126.05;1661215;85;21055;-73
2022/05/30 08:17:33;;;;;;;3.35;3.12;;;;;;;14.54;90.73;100131.58;1674126;84;21065;-72
2022/05/30 08:20:01;;;;;;;3.80;3.50;;;;;;;14.54;90.80;100126.22;1704471;84;21553;-71
2022/05/30 08:22:33;;;;;;;4.63;3.50;;;;;;;14.55;90.44;100133.20;1682274;83;21085;-71
2022/05/30 08:25:07;;;;;;;3.42;3.20;;;;;;;14.56;90.37;100136.20;1697413;82;21031;-74
2022/05/30 08:27:34;;;;;;;5.20;3.83;;;;;;;14.59;90.13;100136.30;1613775;87;21038;-70
2022/05/30 08:30:05;;;;;;;3.58;3.27;;;;;;;14.64;89.98;100138.34;1651696;86;21064;-73
2022/05/30 08:32:35;;;;;;;3.83;2.92;;;;;;;14.68;90.01;100124.26;1659158;85;21074;-74
2022/05/30 08:35:20;;;;;;;4.53;3.80;;;;;;;14.77;90.24;100122.13;1657708;86;21134;-72
2022/05/30 08:37:47;;;;;;;8.20;3.95;;;;;;;14.88;90.14;100132.13;1690343;83;21071;-73
2022/05/30 08:43:29;;;;;;;4.62;4.20;;;;;;;15.08;90.04;100161.96;1656840;85;21071;-70
2022/05/30 08:46:14;;;;;;;3.83;3.62;;;;;;;15.11;89.39;100173.08;1698188;83;21039;-72
2022/05/30 08:48:48;;;;;;;8.13;4.25;;;;;;;15.09;89.01;100166.30;1681942;83;21091;-72
2022/05/30 08:51:28;;;;;;;5.35;4.15;;;;;;;15.12;88.88;100159.13;1708259;83;21051;-74
2022/05/30 08:54:09;;;;;;;5.37;4.87;;;;;;;15.15;88.39;100157.35;1696585;83;21570;-72
2022/05/30 08:56:43;;;;;;;5.97;4.87;;;;;;;15.11;88.74;100151.60;1694312;83;21003;-71
2022/05/30 08:59:41;;;;;;;7.60;5.33;;;;;;;15.05;89.03;100138.23;1690199;84;21039;-71
2022/05/30 09:02:13;;;;;;;9.08;5.12;;;;;;;15.03;89.88;100134.95;1642214;86;21059;-71
2022/05/30 09:04:59;;;;;;;4.92;4.53;;;;;;;15.02;89.92;100128.78;1655633;83;21535;-72
2022/05/30 09:07:31;;;;;;;5.78;4.97;;;;;;;15.06;89.02;100131.84;1677731;83;21019;-72
2022/05/30 09:10:35;;;;;;;7.17;5.28;;;;;;;15.07;89.10;100126.75;1685603;85;21028;-71
2022/05/30 09:13:10;;;;;;;7.53;5.10;;;;;;;15.07;89.49;100148.23;1705328;82;21282;-70
2022/05/30 09:15:56;;;;;;;7.12;4.62;;;;;;;15.10;89.36;100153.16;1703987;82;21094;-79
2022/05/30 09:18:33;;;;;;;5.60;5.15;;;;;;;15.13;89.60;100133.94;1708038;84;21074;-71
2022/05/30 09:20:59;;;;;;;5.90;5.30;;;;;;;15.10;90.30;100147.27;1701773;82;21098;-73
2022/05/30 09:23:26;;;;;;;5.47;4.97;;;;;;;15.09;89.56;100139.45;1694790;82;21557;-71
2022/05/30 09:25:57;;;;;;;4.90;4.50;;;;;;;15.12;89.83;100130.94;1694437;84;21042;-71
2022/05/30 09:28:32;;;;;;;5.47;4.95;;;;;;;15.15;89.81;100117.89;1668565;83;21202;-70
2022/05/30 09:31:39;;;;;;;5.08;4.67;;;;;;;15.22;89.11;100125.89;1694605;85;21075;-73
2022/05/30 09:34:40;;;;;;;5.55;5.00;;;;;;;15.30;88.98;100126.92;1689779;83;21002;-72
2022/05/30 09:37:31;;;;;;;8.68;5.10;;;;;;;15.31;89.19;100125.89;1625571;83;21074;-72
2022/05/30 09:39:59;;;;;;;5.50;5.10;;;;;;;15.36;89.07;100124.67;1703587;83;21053;-72
2022/05/30 09:42:33;;;;;;;8.73;5.50;;;;;;;15.48;88.97;100124.75;1708164;83;21561;-71
2022/05/30 09:45:15;;;;;;;6.22;5.33;;;;;;;15.60;88.35;100102.50;1704117;83;21042;-70
2022/05/30 09:48:11;;;;;;;5.87;5.50;;;;;;;15.78;87.67;100123.15;1660325;83;21134;-72
2022/05/30 09:50:50;;;;;;;9.95;5.17;;;;;;;15.91;86.79;100106.83;1690602;84;21618;-71
2022/05/30 09:53:41;;;;;;;5.15;4.50;;;;;;;16.05;86.75;100104.75;1682510;82;21022;-72
2022/05/30 09:56:13;;;;;;;4.90;4.47;;;;;;;16.15;87.14;100107.19;1656490;85;21606;-73
2022/05/30 09:58:45;;;;;;;7.78;4.87;;;;;;;16.19;85.61;100105.39;1662471;85;21516;-72
2022/05/30 10:01:27;;;;;;;5.58;5.03;;;;;;;16.23;86.19;100102.00;1661242;84;21111;-73
2022/05/30 10:03:59;;;;;;;5.92;5.42;;;;;;;16.15;85.17;100101.81;1707503;84;21526;-72
2022/05/30 10:06:27;;;;;;;6.78;5.50;;;;;;;16.18;84.84;100104.58;1660246;85;21056;-71
2022/05/30 10:28:52;;;;;;;7.08;5.03;;;;;;;16.52;84.03;100075.27;1668262;82;21107;-72
2022/05/30 10:31:50;;;;;;;5.58;4.87;;;;;;;16.67;83.65;100064.00;1702717;84;21226;-73
2022/05/30 10:34:39;;;;;;;5.90;5.20;;;;;;;16.79;82.97;100072.90;1682309;84;20995;-72
2022/05/30 10:37:25;;;;;;;;;;;;;;;16.88;82.36;100072.86;1710133;83;21031;-73
2022/05/30 10:40:13;;;;;;;7.50;5.37;;;;;;;16.96;82.54;100059.56;1708028;83;20118;-72
2022/05/30 10:42:51;;;;;;;5.70;4.70;;;;;;;16.98;82.01;100062.83;1694671;84;21527;-72
2022/05/30 10:45:26;;;;;;;5.22;4.15;;;;;;;17.10;81.88;100056.91;1694399;84;21503;-70
2022/05/30 10:47:56;;;;;;;5.65;5.00;;;;;;;17.21;81.08;100057.91;1708240;84;21026;-71
2022/05/30 10:50:53;;;;;;;6.53;4.50;;;;;;;17.21;80.34;100053.87;1703940;83;21095;-73
2022/05/30 10:53:37;;;;;;;6.60;5.62;;;;;;;17.19;80.14;100057.87;1684323;84;21037;-81
2022/05/30 10:56:31;;;;;;;8.05;4.20;;;;;;;17.18;80.96;100051.67;1562805;88;21547;-71
2022/05/30 10:59:18;;;;;;;6.55;4.60;;;;;;;17.18;80.67;100049.48;1557575;90;21102;-72
2022/05/30 11:02:08;;;;;;;;;;;;;;;17.19;80.88;100047.91;1586243;84;21515;-74
2022/05/30 11:04:43;;;;;;;8.40;4.53;;;;;;;17.21;80.78;100049.83;1675571;83;20100;-71
2022/05/30 11:07:39;;;;;;;6.40;5.45;;;;;;;17.15;81.20;100041.36;1642616;83;21557;-72
2022/05/30 11:10:18;;;;;;;6.55;5.50;;;;;;;17.16;81.82;100038.98;1691540;84;21024;-76
2022/05/30 11:13:06;;;;;;;6.53;5.90;;;;;;;17.11;81.49;100045.06;1694279;83;21050;-72
2022/05/30 11:15:40;;;;;;;5.20;4.75;;;;;;;17.07;81.71;100032.33;1636704;86;21013;-71
2022/05/30 11:18:35;;;;;;;5.37;4.75;;;;;;;17.09;82.05;100038.28;1687776;84;20991;-72
2022/05/30 11:21:51;;;;;;;6.28;5.08;;;;;;;17.12;82.54;100037.79;1693695;84;21075;-72
2022/05/30 11:24:18;;;;;;;5.62;5.17;;;;;;;17.14;82.02;100033.02;1678670;82;21515;-70
2022/05/30 11:27:05;;;;;;;5.62;4.72;;;;;;;17.21;82.74;100033.67;1702849;82;22133;-71
2022/05/30 11:29:58;;;;;;;5.28;4.87;;;;;;;17.27;82.24;100042.66;1689935;82;21399;-72
2022/05/30 11:33:05;;;;;;;6.00;5.17;;;;;;;17.27;82.24;100042.66;1681594;82;21022;-71
2022/05/30 11:35:47;;;;;;;5.60;5.08;;;;;;;17.25;82.03;100041.58;1695892;82;21019;-71
2022/05/30 11:38:51;;;;;;;6.28;5.60;;;;;;;17.23;82.28;100034.78;1688886;82;21513;-70
2022/05/30 11:41:32;;;;;;;5.80;5.28;;;;;;;17.24;81.70;100027.81;1708809;82;21007;-71
2022/05/30 11:44:22;;;;;;;6.50;4.78;;;;;;;17.33;81.97;100012.09;1703471;82;21043;-70
2022/05/30 11:47:12;;;;;;;5.70;5.30;;;;;;;17.42;81.50;100020.59;1674347;82;21101;-71
2022/05/30 11:50:07;;;;;;;5.67;5.25;;;;;;;17.56;80.03;100032.72;1677473;82;22133;-73
2022/05/30 11:53:05;;;;;;;4.70;4.42;;;;;;;17.63;80.02;100015.88;1689243;82;21120;-74
2022/05/30 11:55:38;;;;;;;;;;;;;;;17.63;80.02;100015.88;1712424;82;21034;-75
2022/05/30 11:58:12;;;;;;;10.93;5.08;;;;;;;17.66;79.39;100027.50;1735898;82;20151;-71
2022/05/30 12:00:47;;;;;;;5.58;5.10;;;;;;;17.66;79.10;100022.64;1727227;82;21066;-73
2022/05/30 12:03:32;;;;;;;6.17;5.78;;;;;;;17.74;79.25;100022.77;1721949;82;21052;-71
2022/05/30 12:06:21;;;;;;;6.62;6.00;;;;;;;17.82;78.80;100016.97;1714120;82;21587;-71
2022/05/30 12:09:16;;;;;;;7.33;6.72;;;;;;;17.87;77.40;100031.92;1726797;82;21008;-71
2022/05/30 12:11:59;;;;;;;7.87;7.08;;;;;;;17.92;78.01;100033.37;1711128;82;21020;-72
2022/05/30 12:14:49;;;;;;;12.03;6.62;;;;;;;17.99;77.83;100017.85;1717862;82;21054;-71
2022/05/30 12:24:30;;;;;;;10.63;6.00;;;;;;;18.17;76.30;100010.56;1712587;82;21098;-72
2022/05/30 12:27:08;;;;;;;7.53;6.30;;;;;;;18.26;76.35;100013.13;1720619;82;21051;-74
2022/05/30 12:29:45;;;;;;;8.73;6.28;;;;;;;18.38;75.51;100023.28;1717883;82;21515;-73
2022/05/30 12:32:29;;;;;;;7.33;5.85;;;;;;;18.44;74.51;100016.91;1726143;82;21015;-70
2022/05/30 12:35:11;;;;;;;7.35;6.17;;;;;;;18.56;74.20;100021.39;1724844;82;21911;-72
2022/05/30 12:38:00;;;;;;;7.10;5.92;;;;;;;18.65;74.22;100017.20;1722817;82;21026;-72
2022/05/30 12:40:32;;;;;;;5.30;4.80;;;;;;;18.67;73.26;100006.97;1720904;82;21509;-73
2022/05/30 12:43:29;;;;;;;8.00;6.55;;;;;;;18.70;73.51;100017.78;1725087;82;21477;-72